sensor_id;sensor_type;location;lat;lon;timestamp;P1;durP1;ratioP1;P2;durP2;ratioP2
35518;SDS011;21627;48.216;16.482;2022-08-01T00:00:49;4.03;;;3.10;;
35518;SDS011;21627;48.216;16.482;2022-08-01T00:03:17;6.20;;;3.15;;
35518;SDS011;21627;48.216;16.482;2022-08-01T00:05:44;6.53;;;3.20;;
35518;SDS011;21627;48.216;16.482;2022-08-01T00:08:11;4.88;;;3.45;;
35518;SDS011;21627;48.216;16.482;2022-08-01T00:10:38;3.03;;;2.70;;
35518;SDS011;21627;48.216;16.482;2022-08-01T00:13:05;4.05;;;3.30;;
35518;SDS011;21627;48.216;16.482;2022-08-01T00:15:34;8.43;;;4.38;;
35518;SDS011;21627;48.216;16.482;2022-08-01T00:18:01;6.75;;;3.45;;
35518;SDS011;21627;48.216;16.482;2022-08-01T00:20:28;6.22;;;3.30;;
35518;SDS011;21627;48.216;16.482;2022-08-01T00:22:55;6.05;;;3.72;;
35518;SDS011;21627;48.216;16.482;2022-08-01T00:25:22;4.10;;;3.50;;
35518;SDS011;21627;48.216;16.482;2022-08-01T00:27:59;9.90;;;3.70;;
35518;SDS011;21627;48.216;16.482;2022-08-01T00:30:29;3.40;;;3.10;;
35518;SDS011;21627;48.216;16.482;2022-08-01T00:32:57;4.72;;;3.47;;
35518;SDS011;21627;48.216;16.482;2022-08-01T00:35:24;4.57;;;3.45;;
35518;SDS011;21627;48.216;16.482;2022-08-01T00:37:51;5.20;;;3.22;;
35518;SDS011;21627;48.216;16.482;2022-08-01T00:40:18;4.30;;;3.70;;
35518;SDS011;21627;48.216;16.482;2022-08-01T00:42:46;4.68;;;3.38;;
35518;SDS011;21627;48.216;16.482;2022-08-01T00:45:13;4.28;;;3.30;;
35518;SDS011;21627;48.216;16.482;2022-08-01T00:47:40;5.65;;;3.80;;
35518;SDS011;21627;48.216;16.482;2022-08-01T00:50:07;5.53;;;3.55;;
35518;SDS011;21627;48.216;16.482;2022-08-01T00:52:35;4.45;;;3.35;;
35518;SDS011;21627;48.216;16.482;2022-08-01T00:55:03;4.55;;;3.10;;
35518;SDS011;21627;48.216;16.482;2022-08-01T00:57:30;7.65;;;3.80;;
35518;SDS011;21627;48.216;16.482;2022-08-01T01:00:18;6.18;;;3.90;;
35518;SDS011;21627;48.216;16.482;2022-08-01T01:02:52;10.20;;;4.13;;
35518;SDS011;21627;48.216;16.482;2022-08-01T01:05:20;9.57;;;4.22;;
35518;SDS011;21627;48.216;16.482;2022-08-01T01:07:54;4.63;;;4.07;;
35518;SDS011;21627;48.216;16.482;2022-08-01T01:13:22;7.88;;;4.43;;
35518;SDS011;21627;48.216;16.482;2022-08-01T01:16:17;6.00;;;4.13;;
35518;SDS011;21627;48.216;16.482;2022-08-01T01:24:31;6.13;;;3.60;;
35518;SDS011;21627;48.216;16.482;2022-08-01T01:29:56;7.32;;;3.70;;
35518;SDS011;21627;48.216;16.482;2022-08-01T01:35:05;6.10;;;4.15;;
35518;SDS011;21627;48.216;16.482;2022-08-01T01:37:38;4.97;;;3.78;;
35518;SDS011;21627;48.216;16.482;2022-08-01T01:40:06;6.70;;;3.95;;
35518;SDS011;21627;48.216;16.482;2022-08-01T01:42:37;8.07;;;4.32;;
35518;SDS011;21627;48.216;16.482;2022-08-01T01:45:06;4.63;;;3.75;;
35518;SDS011;21627;48.216;16.482;2022-08-01T01:47:35;6.50;;;4.43;;
35518;SDS011;21627;48.216;16.482;2022-08-01T01:50:04;5.60;;;3.72;;
35518;SDS011;21627;48.216;16.482;2022-08-01T01:52:34;5.95;;;4.20;;
35518;SDS011;21627;48.216;16.482;2022-08-01T01:55:04;6.38;;;3.67;;
35518;SDS011;21627;48.216;16.482;2022-08-01T01:57:37;7.05;;;3.95;;
35518;SDS011;21627;48.216;16.482;2022-08-01T02:00:08;4.55;;;4.03;;
35518;SDS011;21627;48.216;16.482;2022-08-01T02:02:38;5.82;;;4.20;;
35518;SDS011;21627;48.216;16.482;2022-08-01T02:05:09;5.28;;;3.97;;
35518;SDS011;21627;48.216;16.482;2022-08-01T02:07:38;4.93;;;3.78;;
35518;SDS011;21627;48.216;16.482;2022-08-01T02:10:07;4.10;;;3.60;;
35518;SDS011;21627;48.216;16.482;2022-08-01T02:12:39;5.00;;;4.13;;
35518;SDS011;21627;48.216;16.482;2022-08-01T02:15:11;4.88;;;3.95;;
35518;SDS011;21627;48.216;16.482;2022-08-01T02:17:41;8.68;;;3.88;;
35518;SDS011;21627;48.216;16.482;2022-08-01T02:20:13;4.30;;;3.83;;
35518;SDS011;21627;48.216;16.482;2022-08-01T02:22:42;6.20;;;4.00;;
35518;SDS011;21627;48.216;16.482;2022-08-01T02:27:59;5.32;;;3.67;;
35518;SDS011;21627;48.216;16.482;2022-08-01T02:30:33;4.57;;;3.78;;
35518;SDS011;21627;48.216;16.482;2022-08-01T02:33:14;7.07;;;4.20;;
35518;SDS011;21627;48.216;16.482;2022-08-01T02:35:54;4.38;;;3.55;;
35518;SDS011;21627;48.216;16.482;2022-08-01T02:38:45;4.80;;;3.58;;
35518;SDS011;21627;48.216;16.482;2022-08-01T02:41:16;4.68;;;3.83;;
35518;SDS011;21627;48.216;16.482;2022-08-01T02:43:48;5.30;;;3.70;;
35518;SDS011;21627;48.216;16.482;2022-08-01T02:46:31;4.88;;;3.72;;
35518;SDS011;21627;48.216;16.482;2022-08-01T02:49:09;5.47;;;3.63;;
35518;SDS011;21627;48.216;16.482;2022-08-01T02:51:38;5.35;;;3.97;;
35518;SDS011;21627;48.216;16.482;2022-08-01T02:54:08;6.20;;;4.65;;
35518;SDS011;21627;48.216;16.482;2022-08-01T02:56:36;4.13;;;3.50;;
35518;SDS011;21627;48.216;16.482;2022-08-01T02:59:07;5.30;;;3.85;;
35518;SDS011;21627;48.216;16.482;2022-08-01T03:01:41;5.25;;;3.78;;
35518;SDS011;21627;48.216;16.482;2022-08-01T03:04:11;6.25;;;4.65;;
35518;SDS011;21627;48.216;16.482;2022-08-01T03:06:40;5.00;;;4.22;;
35518;SDS011;21627;48.216;16.482;2022-08-01T03:09:10;5.95;;;4.00;;
35518;SDS011;21627;48.216;16.482;2022-08-01T03:11:41;11.77;;;4.13;;
35518;SDS011;21627;48.216;16.482;2022-08-01T03:14:11;5.55;;;4.45;;
35518;SDS011;21627;48.216;16.482;2022-08-01T03:16:41;6.90;;;4.53;;
35518;SDS011;21627;48.216;16.482;2022-08-01T03:19:11;6.13;;;4.30;;
35518;SDS011;21627;48.216;16.482;2022-08-01T03:21:42;6.43;;;4.82;;
35518;SDS011;21627;48.216;16.482;2022-08-01T03:24:11;11.23;;;4.93;;
35518;SDS011;21627;48.216;16.482;2022-08-01T03:26:39;11.70;;;5.32;;
35518;SDS011;21627;48.216;16.482;2022-08-01T03:29:12;9.02;;;5.05;;
35518;SDS011;21627;48.216;16.482;2022-08-01T03:31:46;10.13;;;5.75;;
35518;SDS011;21627;48.216;16.482;2022-08-01T03:34:15;12.27;;;6.35;;
35518;SDS011;21627;48.216;16.482;2022-08-01T03:36:46;11.70;;;6.13;;
35518;SDS011;21627;48.216;16.482;2022-08-01T03:39:40;8.25;;;5.65;;
35518;SDS011;21627;48.216;16.482;2022-08-01T03:42:17;7.72;;;5.20;;
35518;SDS011;21627;48.216;16.482;2022-08-01T03:44:53;8.88;;;5.38;;
35518;SDS011;21627;48.216;16.482;2022-08-01T03:47:26;6.20;;;4.60;;
35518;SDS011;21627;48.216;16.482;2022-08-01T03:50:06;7.43;;;5.20;;
35518;SDS011;21627;48.216;16.482;2022-08-01T03:52:38;7.38;;;4.30;;
35518;SDS011;21627;48.216;16.482;2022-08-01T03:55:08;5.57;;;4.18;;
35518;SDS011;21627;48.216;16.482;2022-08-01T03:57:37;6.00;;;4.47;;
35518;SDS011;21627;48.216;16.482;2022-08-01T04:00:06;5.47;;;4.20;;
35518;SDS011;21627;48.216;16.482;2022-08-01T04:02:35;5.57;;;4.25;;
35518;SDS011;21627;48.216;16.482;2022-08-01T04:05:04;6.90;;;4.43;;
35518;SDS011;21627;48.216;16.482;2022-08-01T04:07:32;9.00;;;4.80;;
35518;SDS011;21627;48.216;16.482;2022-08-01T04:10:05;6.82;;;4.05;;
35518;SDS011;21627;48.216;16.482;2022-08-01T04:12:33;6.63;;;4.30;;
35518;SDS011;21627;48.216;16.482;2022-08-01T04:15:00;5.63;;;3.78;;
35518;SDS011;21627;48.216;16.482;2022-08-01T04:17:31;8.32;;;4.65;;
35518;SDS011;21627;48.216;16.482;2022-08-01T04:19:58;6.88;;;4.40;;
35518;SDS011;21627;48.216;16.482;2022-08-01T04:22:26;10.02;;;4.72;;
35518;SDS011;21627;48.216;16.482;2022-08-01T04:24:54;7.10;;;4.47;;
35518;SDS011;21627;48.216;16.482;2022-08-01T04:27:30;5.03;;;3.97;;
35518;SDS011;21627;48.216;16.482;2022-08-01T04:30:26;6.45;;;4.80;;
35518;SDS011;21627;48.216;16.482;2022-08-01T04:32:57;10.00;;;5.32;;
35518;SDS011;21627;48.216;16.482;2022-08-01T04:35:27;6.25;;;4.82;;
35518;SDS011;21627;48.216;16.482;2022-08-01T04:38:20;10.45;;;5.28;;
35518;SDS011;21627;48.216;16.482;2022-08-01T04:40:53;13.20;;;5.80;;
35518;SDS011;21627;48.216;16.482;2022-08-01T04:43:22;5.43;;;3.92;;
35518;SDS011;21627;48.216;16.482;2022-08-01T04:45:50;9.50;;;4.50;;
35518;SDS011;21627;48.216;16.482;2022-08-01T04:48:18;5.00;;;3.88;;
35518;SDS011;21627;48.216;16.482;2022-08-01T04:50:48;5.70;;;4.30;;
35518;SDS011;21627;48.216;16.482;2022-08-01T04:53:18;6.70;;;4.13;;
35518;SDS011;21627;48.216;16.482;2022-08-01T04:55:48;6.10;;;4.32;;
35518;SDS011;21627;48.216;16.482;2022-08-01T04:58:16;8.48;;;4.60;;
35518;SDS011;21627;48.216;16.482;2022-08-01T05:00:44;6.93;;;4.50;;
35518;SDS011;21627;48.216;16.482;2022-08-01T05:03:13;5.50;;;4.32;;
35518;SDS011;21627;48.216;16.482;2022-08-01T05:05:40;5.72;;;4.03;;
35518;SDS011;21627;48.216;16.482;2022-08-01T05:08:08;6.55;;;4.80;;
35518;SDS011;21627;48.216;16.482;2022-08-01T05:10:36;6.80;;;4.78;;
35518;SDS011;21627;48.216;16.482;2022-08-01T05:13:03;6.43;;;4.95;;
35518;SDS011;21627;48.216;16.482;2022-08-01T05:15:30;8.00;;;4.45;;
35518;SDS011;21627;48.216;16.482;2022-08-01T05:17:57;4.93;;;3.90;;
35518;SDS011;21627;48.216;16.482;2022-08-01T05:20:24;5.75;;;3.97;;
35518;SDS011;21627;48.216;16.482;2022-08-01T05:22:52;6.00;;;4.50;;
35518;SDS011;21627;48.216;16.482;2022-08-01T05:25:19;5.90;;;4.05;;
35518;SDS011;21627;48.216;16.482;2022-08-01T05:28:06;7.57;;;4.60;;
35518;SDS011;21627;48.216;16.482;2022-08-01T05:30:38;7.53;;;4.70;;
35518;SDS011;21627;48.216;16.482;2022-08-01T05:33:05;7.32;;;4.28;;
35518;SDS011;21627;48.216;16.482;2022-08-01T05:35:33;4.85;;;4.18;;
35518;SDS011;21627;48.216;16.482;2022-08-01T05:38:14;7.38;;;4.45;;
35518;SDS011;21627;48.216;16.482;2022-08-01T05:40:42;8.75;;;4.97;;
35518;SDS011;21627;48.216;16.482;2022-08-01T05:43:09;4.80;;;3.95;;
35518;SDS011;21627;48.216;16.482;2022-08-01T05:45:36;9.73;;;4.60;;
35518;SDS011;21627;48.216;16.482;2022-08-01T05:48:03;6.78;;;4.88;;
35518;SDS011;21627;48.216;16.482;2022-08-01T05:50:30;7.88;;;5.18;;
35518;SDS011;21627;48.216;16.482;2022-08-01T05:52:59;10.50;;;4.90;;
35518;SDS011;21627;48.216;16.482;2022-08-01T05:55:27;5.63;;;4.55;;
35518;SDS011;21627;48.216;16.482;2022-08-01T05:57:54;10.30;;;4.50;;
35518;SDS011;21627;48.216;16.482;2022-08-01T06:00:21;5.82;;;4.47;;
35518;SDS011;21627;48.216;16.482;2022-08-01T06:02:48;5.50;;;3.92;;
35518;SDS011;21627;48.216;16.482;2022-08-01T06:05:15;6.68;;;4.35;;
35518;SDS011;21627;48.216;16.482;2022-08-01T06:07:43;6.30;;;4.10;;
35518;SDS011;21627;48.216;16.482;2022-08-01T06:10:10;5.75;;;4.07;;
35518;SDS011;21627;48.216;16.482;2022-08-01T06:12:37;4.55;;;3.80;;
35518;SDS011;21627;48.216;16.482;2022-08-01T06:15:04;10.57;;;4.35;;
35518;SDS011;21627;48.216;16.482;2022-08-01T06:17:32;4.93;;;4.05;;
35518;SDS011;21627;48.216;16.482;2022-08-01T06:20:00;6.18;;;4.10;;
35518;SDS011;21627;48.216;16.482;2022-08-01T06:22:27;5.55;;;3.95;;
35518;SDS011;21627;48.216;16.482;2022-08-01T06:24:56;7.40;;;4.65;;
35518;SDS011;21627;48.216;16.482;2022-08-01T06:27:23;5.53;;;4.63;;
35518;SDS011;21627;48.216;16.482;2022-08-01T06:29:52;8.30;;;4.32;;
35518;SDS011;21627;48.216;16.482;2022-08-01T06:32:23;6.88;;;4.75;;
35518;SDS011;21627;48.216;16.482;2022-08-01T06:34:53;10.30;;;4.75;;
35518;SDS011;21627;48.216;16.482;2022-08-01T06:37:21;13.07;;;4.38;;
35518;SDS011;21627;48.216;16.482;2022-08-01T06:39:52;6.93;;;3.90;;
35518;SDS011;21627;48.216;16.482;2022-08-01T06:42:19;4.47;;;3.42;;
35518;SDS011;21627;48.216;16.482;2022-08-01T06:44:46;7.68;;;3.67;;
35518;SDS011;21627;48.216;16.482;2022-08-01T06:47:13;9.07;;;3.45;;
35518;SDS011;21627;48.216;16.482;2022-08-01T06:49:41;8.73;;;3.83;;
35518;SDS011;21627;48.216;16.482;2022-08-01T06:52:08;6.57;;;3.55;;
35518;SDS011;21627;48.216;16.482;2022-08-01T06:54:35;12.07;;;3.35;;
35518;SDS011;21627;48.216;16.482;2022-08-01T06:57:05;9.95;;;3.60;;
35518;SDS011;21627;48.216;16.482;2022-08-01T06:59:33;7.38;;;3.92;;
35518;SDS011;21627;48.216;16.482;2022-08-01T07:02:00;4.80;;;3.20;;
35518;SDS011;21627;48.216;16.482;2022-08-01T07:04:27;5.03;;;3.17;;
35518;SDS011;21627;48.216;16.482;2022-08-01T07:06:55;4.43;;;3.40;;
35518;SDS011;21627;48.216;16.482;2022-08-01T07:09:23;7.28;;;2.90;;
35518;SDS011;21627;48.216;16.482;2022-08-01T07:11:50;4.65;;;3.00;;
35518;SDS011;21627;48.216;16.482;2022-08-01T07:14:19;5.47;;;3.10;;
35518;SDS011;21627;48.216;16.482;2022-08-01T07:16:47;4.20;;;2.97;;
35518;SDS011;21627;48.216;16.482;2022-08-01T07:19:15;6.57;;;3.20;;
35518;SDS011;21627;48.216;16.482;2022-08-01T07:21:43;5.10;;;2.50;;
35518;SDS011;21627;48.216;16.482;2022-08-01T07:24:15;5.70;;;3.25;;
35518;SDS011;21627;48.216;16.482;2022-08-01T07:26:47;7.70;;;3.03;;
35518;SDS011;21627;48.216;16.482;2022-08-01T07:29:19;5.57;;;2.90;;
35518;SDS011;21627;48.216;16.482;2022-08-01T07:31:56;5.78;;;2.95;;
35518;SDS011;21627;48.216;16.482;2022-08-01T07:34:24;4.85;;;2.80;;
35518;SDS011;21627;48.216;16.482;2022-08-01T07:36:52;7.80;;;2.75;;
35518;SDS011;21627;48.216;16.482;2022-08-01T07:39:20;9.93;;;3.00;;
35518;SDS011;21627;48.216;16.482;2022-08-01T07:41:47;6.70;;;3.08;;
35518;SDS011;21627;48.216;16.482;2022-08-01T07:44:33;7.47;;;2.95;;
35518;SDS011;21627;48.216;16.482;2022-08-01T07:47:01;5.40;;;3.35;;
35518;SDS011;21627;48.216;16.482;2022-08-01T07:49:29;11.48;;;3.55;;
35518;SDS011;21627;48.216;16.482;2022-08-01T07:52:04;10.27;;;4.15;;
35518;SDS011;21627;48.216;16.482;2022-08-01T07:54:31;9.10;;;3.50;;
35518;SDS011;21627;48.216;16.482;2022-08-01T07:57:00;6.47;;;3.08;;
35518;SDS011;21627;48.216;16.482;2022-08-01T07:59:29;5.07;;;3.10;;
35518;SDS011;21627;48.216;16.482;2022-08-01T08:01:56;4.63;;;3.00;;
35518;SDS011;21627;48.216;16.482;2022-08-01T08:04:24;7.75;;;2.80;;
35518;SDS011;21627;48.216;16.482;2022-08-01T08:06:52;4.07;;;2.75;;
35518;SDS011;21627;48.216;16.482;2022-08-01T08:09:20;6.68;;;3.35;;
35518;SDS011;21627;48.216;16.482;2022-08-01T08:11:47;6.03;;;3.35;;
35518;SDS011;21627;48.216;16.482;2022-08-01T08:14:18;4.30;;;2.97;;
35518;SDS011;21627;48.216;16.482;2022-08-01T08:16:45;5.25;;;3.28;;
35518;SDS011;21627;48.216;16.482;2022-08-01T08:19:12;6.10;;;3.28;;
35518;SDS011;21627;48.216;16.482;2022-08-01T08:21:40;6.28;;;3.47;;
35518;SDS011;21627;48.216;16.482;2022-08-01T08:24:08;8.15;;;3.38;;
35518;SDS011;21627;48.216;16.482;2022-08-01T08:26:54;7.25;;;3.20;;
35518;SDS011;21627;48.216;16.482;2022-08-01T08:29:23;8.40;;;3.03;;
35518;SDS011;21627;48.216;16.482;2022-08-01T08:31:53;5.97;;;3.55;;
35518;SDS011;21627;48.216;16.482;2022-08-01T08:34:24;4.40;;;3.13;;
35518;SDS011;21627;48.216;16.482;2022-08-01T08:36:53;7.82;;;3.33;;
35518;SDS011;21627;48.216;16.482;2022-08-01T08:39:24;6.95;;;2.85;;
35518;SDS011;21627;48.216;16.482;2022-08-01T08:41:52;8.18;;;2.88;;
35518;SDS011;21627;48.216;16.482;2022-08-01T08:44:19;6.55;;;2.70;;
35518;SDS011;21627;48.216;16.482;2022-08-01T08:46:48;6.03;;;2.95;;
35518;SDS011;21627;48.216;16.482;2022-08-01T08:49:28;5.63;;;2.58;;
35518;SDS011;21627;48.216;16.482;2022-08-01T08:52:02;6.70;;;2.53;;
35518;SDS011;21627;48.216;16.482;2022-08-01T08:54:34;4.50;;;2.30;;
35518;SDS011;21627;48.216;16.482;2022-08-01T08:57:04;4.28;;;2.38;;
35518;SDS011;21627;48.216;16.482;2022-08-01T08:59:31;5.28;;;2.47;;
35518;SDS011;21627;48.216;16.482;2022-08-01T09:01:59;5.03;;;2.60;;
35518;SDS011;21627;48.216;16.482;2022-08-01T09:04:26;5.72;;;2.53;;
35518;SDS011;21627;48.216;16.482;2022-08-01T09:06:53;4.55;;;2.75;;
35518;SDS011;21627;48.216;16.482;2022-08-01T09:09:21;3.95;;;2.47;;
35518;SDS011;21627;48.216;16.482;2022-08-01T09:11:50;3.60;;;1.88;;
35518;SDS011;21627;48.216;16.482;2022-08-01T09:14:23;3.80;;;2.30;;
35518;SDS011;21627;48.216;16.482;2022-08-01T09:17:05;7.35;;;2.38;;
35518;SDS011;21627;48.216;16.482;2022-08-01T09:19:38;5.63;;;2.22;;
35518;SDS011;21627;48.216;16.482;2022-08-01T09:22:23;3.28;;;2.00;;
35518;SDS011;21627;48.216;16.482;2022-08-01T09:27:27;2.75;;;1.75;;
35518;SDS011;21627;48.216;16.482;2022-08-01T09:30:06;5.13;;;2.58;;
35518;SDS011;21627;48.216;16.482;2022-08-01T09:33:01;6.47;;;2.35;;
35518;SDS011;21627;48.216;16.482;2022-08-01T09:35:43;3.42;;;2.10;;
35518;SDS011;21627;48.216;16.482;2022-08-01T09:38:20;5.68;;;1.90;;
35518;SDS011;21627;48.216;16.482;2022-08-01T09:40:51;4.43;;;2.50;;
35518;SDS011;21627;48.216;16.482;2022-08-01T09:43:21;4.70;;;1.98;;
35518;SDS011;21627;48.216;16.482;2022-08-01T09:45:52;6.38;;;2.10;;
35518;SDS011;21627;48.216;16.482;2022-08-01T09:48:23;3.10;;;2.00;;
35518;SDS011;21627;48.216;16.482;2022-08-01T09:50:55;4.43;;;2.03;;
35518;SDS011;21627;48.216;16.482;2022-08-01T09:56:18;3.45;;;1.67;;
35518;SDS011;21627;48.216;16.482;2022-08-01T09:58:58;3.58;;;1.77;;
35518;SDS011;21627;48.216;16.482;2022-08-01T10:04:15;2.60;;;1.80;;
35518;SDS011;21627;48.216;16.482;2022-08-01T10:06:47;3.10;;;1.98;;
35518;SDS011;21627;48.216;16.482;2022-08-01T10:09:29;3.42;;;1.98;;
35518;SDS011;21627;48.216;16.482;2022-08-01T10:12:06;2.97;;;1.65;;
35518;SDS011;21627;48.216;16.482;2022-08-01T10:14:42;2.88;;;1.63;;
35518;SDS011;21627;48.216;16.482;2022-08-01T10:17:16;3.05;;;1.52;;
35518;SDS011;21627;48.216;16.482;2022-08-01T10:19:48;2.80;;;2.00;;
35518;SDS011;21627;48.216;16.482;2022-08-01T10:22:17;4.85;;;2.10;;
35518;SDS011;21627;48.216;16.482;2022-08-01T10:24:50;2.53;;;1.70;;
35518;SDS011;21627;48.216;16.482;2022-08-01T10:27:22;4.57;;;2.20;;
35518;SDS011;21627;48.216;16.482;2022-08-01T10:30:05;4.30;;;2.20;;
35518;SDS011;21627;48.216;16.482;2022-08-01T10:32:49;3.42;;;1.98;;
35518;SDS011;21627;48.216;16.482;2022-08-01T10:35:20;2.50;;;1.80;;
35518;SDS011;21627;48.216;16.482;2022-08-01T10:38:07;5.18;;;2.20;;
35518;SDS011;21627;48.216;16.482;2022-08-01T10:40:39;2.13;;;1.70;;
35518;SDS011;21627;48.216;16.482;2022-08-01T10:43:09;3.92;;;1.90;;
35518;SDS011;21627;48.216;16.482;2022-08-01T10:45:38;3.97;;;2.00;;
35518;SDS011;21627;48.216;16.482;2022-08-01T10:48:18;6.63;;;1.95;;
35518;SDS011;21627;48.216;16.482;2022-08-01T10:51:08;3.15;;;1.92;;
35518;SDS011;21627;48.216;16.482;2022-08-01T10:53:53;3.85;;;1.60;;
35518;SDS011;21627;48.216;16.482;2022-08-01T10:56:26;3.50;;;1.73;;
35518;SDS011;21627;48.216;16.482;2022-08-01T10:59:20;2.28;;;1.73;;
35518;SDS011;21627;48.216;16.482;2022-08-01T11:02:30;3.50;;;1.83;;
35518;SDS011;21627;48.216;16.482;2022-08-01T11:05:01;6.25;;;1.58;;
35518;SDS011;21627;48.216;16.482;2022-08-01T11:07:43;3.83;;;2.05;;
35518;SDS011;21627;48.216;16.482;2022-08-01T11:13:10;3.25;;;2.08;;
35518;SDS011;21627;48.216;16.482;2022-08-01T11:15:39;3.33;;;1.88;;
35518;SDS011;21627;48.216;16.482;2022-08-01T11:20:58;4.30;;;1.83;;
35518;SDS011;21627;48.216;16.482;2022-08-01T11:23:49;6.93;;;2.22;;
35518;SDS011;21627;48.216;16.482;2022-08-01T11:26:20;3.33;;;1.50;;
35518;SDS011;21627;48.216;16.482;2022-08-01T11:29:11;23.73;;;3.17;;
35518;SDS011;21627;48.216;16.482;2022-08-01T11:31:48;5.50;;;2.03;;
35518;SDS011;21627;48.216;16.482;2022-08-01T11:34:16;5.30;;;2.00;;
35518;SDS011;21627;48.216;16.482;2022-08-01T11:36:45;3.85;;;2.03;;
35518;SDS011;21627;48.216;16.482;2022-08-01T11:39:28;5.50;;;1.95;;
35518;SDS011;21627;48.216;16.482;2022-08-01T11:42:13;6.57;;;1.95;;
35518;SDS011;21627;48.216;16.482;2022-08-01T11:44:49;4.70;;;1.98;;
35518;SDS011;21627;48.216;16.482;2022-08-01T11:47:17;5.72;;;1.63;;
35518;SDS011;21627;48.216;16.482;2022-08-01T11:50:04;5.35;;;1.80;;
35518;SDS011;21627;48.216;16.482;2022-08-01T11:52:32;3.17;;;1.63;;
35518;SDS011;21627;48.216;16.482;2022-08-01T11:57:30;4.72;;;1.65;;
35518;SDS011;21627;48.216;16.482;2022-08-01T12:00:11;3.30;;;1.80;;
35518;SDS011;21627;48.216;16.482;2022-08-01T12:02:43;2.80;;;1.90;;
35518;SDS011;21627;48.216;16.482;2022-08-01T12:05:25;2.33;;;1.88;;
35518;SDS011;21627;48.216;16.482;2022-08-01T12:07:56;3.92;;;1.90;;
35518;SDS011;21627;48.216;16.482;2022-08-01T12:10:25;6.22;;;2.40;;
35518;SDS011;21627;48.216;16.482;2022-08-01T12:15:34;4.40;;;1.67;;
35518;SDS011;21627;48.216;16.482;2022-08-01T12:18:04;2.60;;;1.92;;
35518;SDS011;21627;48.216;16.482;2022-08-01T12:20:36;2.03;;;1.83;;
35518;SDS011;21627;48.216;16.482;2022-08-01T12:23:22;4.45;;;2.00;;
35518;SDS011;21627;48.216;16.482;2022-08-01T12:25:52;4.70;;;2.05;;
35518;SDS011;21627;48.216;16.482;2022-08-01T12:28:20;4.28;;;2.17;;
35518;SDS011;21627;48.216;16.482;2022-08-01T12:30:48;3.45;;;1.73;;
35518;SDS011;21627;48.216;16.482;2022-08-01T12:33:19;8.32;;;2.28;;
35518;SDS011;21627;48.216;16.482;2022-08-01T12:35:47;6.53;;;2.00;;
35518;SDS011;21627;48.216;16.482;2022-08-01T12:38:15;4.60;;;2.05;;
35518;SDS011;21627;48.216;16.482;2022-08-01T12:40:46;2.17;;;1.85;;
35518;SDS011;21627;48.216;16.482;2022-08-01T12:43:19;6.28;;;2.20;;
35518;SDS011;21627;48.216;16.482;2022-08-01T12:45:55;3.78;;;1.88;;
35518;SDS011;21627;48.216;16.482;2022-08-01T12:48:25;5.57;;;2.00;;
35518;SDS011;21627;48.216;16.482;2022-08-01T12:50:53;5.38;;;2.40;;
35518;SDS011;21627;48.216;16.482;2022-08-01T12:53:24;4.90;;;1.90;;
35518;SDS011;21627;48.216;16.482;2022-08-01T12:56:07;4.10;;;1.20;;
35518;SDS011;21627;48.216;16.482;2022-08-01T12:58:37;4.07;;;1.23;;
35518;SDS011;21627;48.216;16.482;2022-08-01T13:01:06;2.92;;;1.30;;
35518;SDS011;21627;48.216;16.482;2022-08-01T13:03:37;1.48;;;1.00;;
35518;SDS011;21627;48.216;16.482;2022-08-01T13:06:14;1.95;;;1.20;;
35518;SDS011;21627;48.216;16.482;2022-08-01T13:08:43;2.35;;;1.05;;
35518;SDS011;21627;48.216;16.482;2022-08-01T13:11:12;1.33;;;0.95;;
35518;SDS011;21627;48.216;16.482;2022-08-01T13:13:43;3.78;;;1.33;;
35518;SDS011;21627;48.216;16.482;2022-08-01T13:16:21;1.65;;;1.13;;
35518;SDS011;21627;48.216;16.482;2022-08-01T13:19:11;2.75;;;1.35;;
35518;SDS011;21627;48.216;16.482;2022-08-01T13:21:52;2.22;;;1.20;;
35518;SDS011;21627;48.216;16.482;2022-08-01T13:26:57;4.57;;;1.80;;
35518;SDS011;21627;48.216;16.482;2022-08-01T13:29:30;4.18;;;1.67;;
35518;SDS011;21627;48.216;16.482;2022-08-01T13:32:17;5.32;;;1.45;;
35518;SDS011;21627;48.216;16.482;2022-08-01T13:35:02;3.17;;;1.73;;
35518;SDS011;21627;48.216;16.482;2022-08-01T13:37:34;3.30;;;1.42;;
35518;SDS011;21627;48.216;16.482;2022-08-01T13:40:06;3.65;;;2.00;;
35518;SDS011;21627;48.216;16.482;2022-08-01T13:42:35;2.97;;;1.70;;
35518;SDS011;21627;48.216;16.482;2022-08-01T13:45:04;4.07;;;1.73;;
35518;SDS011;21627;48.216;16.482;2022-08-01T13:47:40;2.75;;;1.48;;
35518;SDS011;21627;48.216;16.482;2022-08-01T13:50:31;2.25;;;1.80;;
35518;SDS011;21627;48.216;16.482;2022-08-01T13:52:58;3.58;;;1.33;;
35518;SDS011;21627;48.216;16.482;2022-08-01T13:55:25;2.78;;;1.20;;
35518;SDS011;21627;48.216;16.482;2022-08-01T13:58:00;5.90;;;1.15;;
35518;SDS011;21627;48.216;16.482;2022-08-01T14:00:28;4.35;;;1.40;;
35518;SDS011;21627;48.216;16.482;2022-08-01T14:02:55;2.72;;;1.15;;
35518;SDS011;21627;48.216;16.482;2022-08-01T14:05:22;3.33;;;1.20;;
35518;SDS011;21627;48.216;16.482;2022-08-01T14:07:49;3.65;;;1.40;;
35518;SDS011;21627;48.216;16.482;2022-08-01T14:10:22;3.03;;;1.10;;
35518;SDS011;21627;48.216;16.482;2022-08-01T14:12:52;2.13;;;1.00;;
35518;SDS011;21627;48.216;16.482;2022-08-01T14:15:22;1.38;;;1.10;;
35518;SDS011;21627;48.216;16.482;2022-08-01T14:18:05;2.67;;;1.05;;
35518;SDS011;21627;48.216;16.482;2022-08-01T14:20:35;2.15;;;1.38;;
35518;SDS011;21627;48.216;16.482;2022-08-01T14:23:03;2.00;;;1.38;;
35518;SDS011;21627;48.216;16.482;2022-08-01T14:25:35;2.80;;;1.25;;
35518;SDS011;21627;48.216;16.482;2022-08-01T14:28:26;2.05;;;1.25;;
35518;SDS011;21627;48.216;16.482;2022-08-01T14:30:55;1.95;;;1.00;;
35518;SDS011;21627;48.216;16.482;2022-08-01T14:33:23;4.90;;;1.13;;
35518;SDS011;21627;48.216;16.482;2022-08-01T14:35:51;2.65;;;1.13;;
35518;SDS011;21627;48.216;16.482;2022-08-01T14:38:38;2.75;;;1.17;;
35518;SDS011;21627;48.216;16.482;2022-08-01T14:41:05;3.25;;;1.27;;
35518;SDS011;21627;48.216;16.482;2022-08-01T14:43:33;5.07;;;1.20;;
35518;SDS011;21627;48.216;16.482;2022-08-01T14:46:00;1.33;;;0.80;;
35518;SDS011;21627;48.216;16.482;2022-08-01T14:48:29;2.83;;;1.10;;
35518;SDS011;21627;48.216;16.482;2022-08-01T14:50:57;4.05;;;1.00;;
35518;SDS011;21627;48.216;16.482;2022-08-01T14:53:28;3.78;;;1.63;;
35518;SDS011;21627;48.216;16.482;2022-08-01T14:55:56;4.03;;;1.20;;
35518;SDS011;21627;48.216;16.482;2022-08-01T14:58:23;2.47;;;1.17;;
35518;SDS011;21627;48.216;16.482;2022-08-01T15:00:50;2.17;;;1.02;;
35518;SDS011;21627;48.216;16.482;2022-08-01T15:03:24;3.00;;;1.10;;
35518;SDS011;21627;48.216;16.482;2022-08-01T15:05:51;1.33;;;1.02;;
35518;SDS011;21627;48.216;16.482;2022-08-01T15:08:19;9.20;;;1.35;;
35518;SDS011;21627;48.216;16.482;2022-08-01T15:10:46;2.65;;;1.20;;
35518;SDS011;21627;48.216;16.482;2022-08-01T15:13:13;2.45;;;1.40;;
35518;SDS011;21627;48.216;16.482;2022-08-01T15:15:42;2.17;;;0.80;;
35518;SDS011;21627;48.216;16.482;2022-08-01T15:18:10;2.90;;;1.20;;
35518;SDS011;21627;48.216;16.482;2022-08-01T15:20:37;2.10;;;1.58;;
35518;SDS011;21627;48.216;16.482;2022-08-01T15:23:05;2.28;;;1.02;;
35518;SDS011;21627;48.216;16.482;2022-08-01T15:25:32;1.65;;;1.20;;
35518;SDS011;21627;48.216;16.482;2022-08-01T15:28:10;1.85;;;1.25;;
35518;SDS011;21627;48.216;16.482;2022-08-01T15:30:38;5.15;;;1.85;;
35518;SDS011;21627;48.216;16.482;2022-08-01T15:33:05;7.35;;;1.70;;
35518;SDS011;21627;48.216;16.482;2022-08-01T15:35:33;3.97;;;1.25;;
35518;SDS011;21627;48.216;16.482;2022-08-01T15:38:00;2.25;;;1.35;;